Iepe, Brazil
Current Conditions -  °F | °C
As of 8:10 AM on Saturday 22 Nov 2014 (Local Time) from SBLO Reporting Station
Moderate Rain Moderate Rain  
Wind Chill: 68°   Ceiling: 7000
Heat Index: 68°   Visibility: 1.8mi
Dew Point: 66°   Wind: 6mph
Humidity: 94%   Direction: 170°S
Pressure: 29.97"   Gusts: NA
Location:  22.64°S, 51.11°W
Report Text: SBLO 221010Z 17005KT 3000 RA SCT010 OVC070 20/19 Q1015
Loading
Personal Weather Stations






























Interactive Weather Map New forecast layout! Learn more

10-Day Weather Forecast

Advertisements
Track Severe Weather on mobile